| time (UTC) | temp F | wind direction | speed MPH | gust MPH | rain 1hr in | rain 24hr in | rain mn in | humidity % | barometer mb |
| 20260508215234 | 50 | 1 | 0.0 | 1.0 | 0.00 | 0.13 | 0.12 | 91 | 1016.0 |
| 20260508213434 | 50 | 330 | 1.0 | 2.0 | 0.00 | 0.13 | 0.12 | 91 | 1016.0 |
| 20260508212533 | 50 | 324 | 0.0 | 2.0 | 0.00 | 0.13 | 0.12 | 91 | 1015.8 |
| 20260508211633 | 50 | 356 | 1.0 | 3.0 | 0.00 | 0.13 | 0.12 | 91 | 1015.6 |
| 20260508205834 | 50 | 328 | 2.0 | 4.0 | 0.06 | 0.13 | 0.12 | 91 | 1015.3 |
| 20260508204934 | 50 | 44 | 2.0 | 6.0 | 0.06 | 0.13 | 0.12 | 91 | 1015.2 |
| 20260508204034 | 50 | 328 | 4.0 | 11.0 | 0.06 | 0.13 | 0.12 | 91 | 1014.7 |
| 20260508203134 | 50 | 50 | 2.0 | 7.0 | 0.06 | 0.13 | 0.12 | 91 | 1014.4 |
| 20260508202233 | 51 | 38 | 4.0 | 7.0 | 0.06 | 0.13 | 0.12 | 91 | 1014.1 |
| 20260508201334 | 51 | 351 | 2.0 | 5.0 | 0.04 | 0.11 | 0.11 | 90 | 1013.9 |
| 20260508195534 | 51 | 12 | 2.0 | 6.0 | 0.01 | 0.07 | 0.06 | 90 | 1013.2 |
| 20260508193734 | 51 | 11 | 3.0 | 8.0 | 0.04 | 0.07 | 0.06 | 87 | 1012.7 |
| 20260508192833 | 51 | 311 | 5.0 | 8.0 | 0.06 | 0.07 | 0.06 | 85 | 1012.5 |
| 20260508190134 | 51 | 335 | 2.0 | 5.0 | 0.05 | 0.06 | 0.05 | 81 | 1011.9 |
| 20260508185234 | 51 | 32 | 3.0 | 7.0 | 0.05 | 0.06 | 0.05 | 80 | 1011.7 |
| 20260508184333 | 52 | 344 | 3.0 | 8.0 | 0.02 | 0.04 | 0.02 | 77 | 1011.7 |
| 20260508183433 | 52 | 317 | 4.0 | 5.0 | 0.02 | 0.04 | 0.02 | 75 | 1011.3 |
| 20260508182534 | 52 | 356 | 2.0 | 8.0 | 0.00 | 0.01 | 0.00 | 74 | 1011.0 |
| 20260508181633 | 52 | 339 | 4.0 | 8.0 | 0.00 | 0.01 | 0.00 | 74 | 1011.0 |
| 20260508180733 | 53 | 6 | 2.0 | 7.0 | 0.00 | 0.01 | 0.00 | 74 | 1010.8 |
| 20260508174934 | 54 | 23 | 3.0 | 9.0 | 0.00 | 0.01 | 0.00 | 72 | 1010.8 |
| 20260508174033 | 55 | 19 | 2.0 | 10.0 | 0.00 | 0.01 | 0.00 | 64 | 1010.6 |
| 20260508173134 | 56 | 60 | 4.0 | 8.0 | 0.00 | 0.01 | 0.00 | 63 | 1010.1 |
| 20260508172233 | 56 | 30 | 2.0 | 6.0 | 0.00 | 0.01 | 0.00 | 62 | 1010.0 |
| 20260508171334 | 56 | 17 | 3.0 | 11.0 | 0.00 | 0.01 | 0.00 | 60 | 1010.3 |
| 20260508170434 | 56 | 8 | 4.0 | 10.0 | 0.00 | 0.01 | 0.00 | 58 | 1009.9 |
| 20260508165534 | 57 | 14 | 4.0 | 6.0 | 0.00 | 0.01 | 0.00 | 55 | 1009.8 |
| 20260508164633 | 57 | 24 | 2.0 | 5.0 | 0.00 | 0.01 | 0.00 | 55 | 1009.6 |
| 20260508163734 | 57 | 16 | 4.0 | 9.0 | 0.00 | 0.01 | 0.00 | 54 | 1009.6 |
| 20260508162833 | 56 | 346 | 4.0 | 7.0 | 0.00 | 0.01 | 0.00 | 53 | 1009.4 |
| 20260508161934 | 56 | 350 | 2.0 | 4.0 | 0.00 | 0.01 | 0.00 | 52 | 1009.8 |
| 20260508160133 | 57 | 33 | 2.0 | 5.0 | 0.00 | 0.01 | 0.00 | 50 | 1009.8 |
| 20260508155234 | 56 | 13 | 3.0 | 7.0 | 0.00 | 0.01 | 0.00 | 50 | 1010.0 |
| 20260508153434 | 56 | 317 | 3.0 | 5.0 | 0.00 | 0.01 | 0.00 | 50 | 1009.6 |
| 20260508152534 | 56 | 343 | 2.0 | 11.0 | 0.00 | 0.01 | 0.00 | 50 | 1010.1 |
| 20260508151634 | 56 | 343 | 2.0 | 4.0 | 0.00 | 0.01 | 0.00 | 50 | 1010.0 |
| 20260508150734 | 56 | 298 | 1.0 | 4.0 | 0.00 | 0.01 | 0.00 | 50 | 1010.1 |
| 20260508145834 | 55 | 305 | 1.0 | 7.0 | 0.00 | 0.01 | 0.01 | 49 | 1010.4 |
| 20260508144933 | 55 | 289 | 3.0 | 5.0 | 0.00 | 0.01 | 0.01 | 50 | 1010.3 |
| 20260508144034 | 55 | 29 | 1.0 | 4.0 | 0.00 | 0.01 | 0.01 | 50 | 1010.6 |
| 20260508143134 | 55 | 305 | 1.0 | 3.0 | 0.00 | 0.01 | 0.01 | 51 | 1010.6 |
| 20260508141334 | 55 | 63 | 3.0 | 8.0 | 0.00 | 0.01 | 0.01 | 50 | 1010.5 |
| 20260508135534 | 54 | 290 | 2.0 | 2.0 | 0.00 | 0.01 | 0.01 | 59 | 1010.2 |
| 20260508133734 | 55 | 312 | 1.0 | 3.0 | 0.00 | 0.01 | 0.01 | 56 | 1010.1 |
| 20260508132834 | 55 | 306 | 1.0 | 3.0 | 0.00 | 0.01 | 0.01 | 57 | 1010.1 |
| 20260508131934 | 55 | 344 | 2.0 | 4.0 | 0.00 | 0.01 | 0.01 | 56 | 1010.0 |
| 20260508130134 | 55 | 311 | 2.0 | 3.0 | 0.00 | 0.01 | 0.01 | 62 | 1010.5 |
| 20260508125234 | 55 | 34 | 1.0 | 7.0 | 0.00 | 0.01 | 0.01 | 62 | 1010.5 |
| 20260508124334 | 55 | 331 | 1.0 | 5.0 | 0.00 | 0.01 | 0.01 | 63 | 1010.2 |
| 20260508123434 | 55 | 38 | 1.0 | 8.0 | 0.00 | 0.01 | 0.01 | 64 | 1010.4 |
| 20260508122534 | 55 | 31 | 2.0 | 8.0 | 0.00 | 0.01 | 0.01 | 65 | 1010.3 |
| 20260508121633 | 56 | 8 | 2.0 | 9.0 | 0.00 | 0.01 | 0.01 | 66 | 1010.3 |
| 20260508120734 | 56 | 17 | 4.0 | 9.0 | 0.00 | 0.01 | 0.01 | 68 | 1010.3 |
| 20260508115834 | 56 | 35 | 2.0 | 11.0 | 0.00 | 0.01 | 0.01 | 70 | 1010.3 |
| 20260508114034 | 57 | 354 | 4.0 | 8.0 | 0.00 | 0.01 | 0.01 | 68 | 1010.0 |
| 20260508113134 | 57 | 53 | 4.0 | 9.0 | 0.00 | 0.01 | 0.01 | 69 | 1010.1 |
| 20260508112234 | 57 | 43 | 3.0 | 8.0 | 0.00 | 0.01 | 0.01 | 71 | 1009.7 |
| 20260508111334 | 57 | 24 | 4.0 | 11.0 | 0.00 | 0.01 | 0.01 | 71 | 1009.7 |
| 20260508110434 | 57 | 42 | 2.0 | 8.0 | 0.00 | 0.01 | 0.01 | 72 | 1009.5 |
| 20260508103734 | 57 | 17 | 5.0 | 11.0 | 0.01 | 0.01 | 0.01 | 76 | 1009.0 |
| 20260508102834 | 57 | 64 | 3.0 | 12.0 | 0.01 | 0.01 | 0.01 | 77 | 1008.8 |
| 20260508095234 | 57 | 29 | 4.0 | 6.0 | 0.01 | 0.01 | 0.01 | 84 | 1007.9 |
| 20260508092534 | 58 | 34 | 2.0 | 8.0 | 0.00 | 0.00 | 0.00 | 85 | 1007.8 |
| 20260508090734 | 58 | 15 | 3.0 | 8.0 | 0.00 | 0.00 | 0.00 | 83 | 1007.0 |
| 20260508084935 | 59 | 3 | 3.0 | 8.0 | 0.00 | 0.00 | 0.00 | 81 | 1006.6 |
| 20260508081334 | 60 | 342 | 3.0 | 8.0 | 0.00 | 0.00 | 0.00 | 80 | 1005.7 |
| 20260508080433 | 60 | 40 | 4.0 | 10.0 | 0.00 | 0.00 | 0.00 | 80 | 1005.8 |
| 20260508075533 | 61 | 48 | 3.0 | 11.0 | 0.00 | 0.00 | 0.00 | 79 | 1005.6 |
| 20260508074634 | 61 | 72 | 4.0 | 11.0 | 0.00 | 0.00 | 0.00 | 78 | 1005.3 |
| 20260508073734 | 61 | 38 | 5.0 | 10.0 | 0.00 | 0.00 | 0.00 | 77 | 1005.0 |
| 20260508072834 | 62 | 350 | 4.0 | 11.0 | 0.00 | 0.00 | 0.00 | 74 | 1004.9 |
| 20260508071934 | 63 | 64 | 3.0 | 10.0 | 0.00 | 0.00 | 0.00 | 72 | 1004.7 |
| 20260508070134 | 65 | 353 | 3.0 | 11.0 | 0.00 | 0.00 | 0.00 | 63 | 1004.6 |
| 20260508065234 | 67 | 352 | 3.0 | 13.0 | 0.00 | 0.00 | 0.00 | 62 | 1004.4 |
| 20260508063434 | 68 | 74 | 4.0 | 18.0 | 0.00 | 0.00 | 0.00 | 63 | 1004.4 |
| 20260508062534 | 68 | 65 | 4.0 | 16.0 | 0.00 | 0.00 | 0.00 | 64 | 1004.1 |
| 20260508061633 | 68 | 36 | 3.0 | 13.0 | 0.00 | 0.00 | 0.00 | 64 | 1003.9 |
| 20260508060734 | 68 | 24 | 3.0 | 13.0 | 0.00 | 0.00 | 0.00 | 65 | 1004.1 |
| 20260508055834 | 69 | 27 | 6.0 | 11.0 | 0.00 | 0.00 | 0.00 | 61 | 1003.8 |
| 20260508054934 | 70 | 34 | 7.0 | 13.0 | 0.00 | 0.00 | 0.00 | 59 | 1003.9 |
| 20260508054034 | 71 | 63 | 5.0 | 15.0 | 0.00 | 0.00 | 0.00 | 56 | 1003.7 |
| 20260508053134 | 73 | 41 | 6.0 | 15.0 | 0.00 | 0.00 | 0.00 | 51 | 1003.9 |
| 20260508052234 | 72 | 12 | 4.0 | 10.0 | 0.00 | 0.00 | 0.00 | 51 | 1003.5 |
| 20260508050433 | 71 | 28 | 5.0 | 14.0 | 0.00 | 0.00 | 0.00 | 56 | 1003.5 |
| 20260508045534 | 70 | 46 | 2.0 | 14.0 | 0.00 | 0.00 | 0.00 | 55 | 1003.6 |
| 20260508044633 | 70 | 27 | 5.0 | 11.0 | 0.00 | 0.00 | 0.00 | 56 | 1003.8 |
| 20260508043734 | 70 | 38 | 4.0 | 10.0 | 0.00 | 0.00 | 0.00 | 58 | 1003.9 |
| 20260508042834 | 70 | 66 | 3.0 | 10.0 | 0.00 | 0.00 | 0.00 | 60 | 1003.9 |
| 20260508041934 | 71 | 43 | 2.0 | 8.0 | 0.00 | 0.00 | 0.00 | 60 | 1004.4 |
| 20260508041034 | 71 | 40 | 5.0 | 8.0 | 0.00 | 0.00 | 0.00 | 61 | 1004.1 |
| 20260508040134 | 71 | 54 | 4.0 | 8.0 | 0.00 | 0.00 | 0.00 | 62 | 1004.3 |
| 20260508035234 | 71 | 46 | 3.0 | 7.0 | 0.00 | 0.00 | 0.00 | 63 | 1004.1 |
| 20260508034334 | 71 | 58 | 4.0 | 7.0 | 0.00 | 0.00 | 0.00 | 62 | 1004.2 |
| 20260508033434 | 71 | 45 | 3.0 | 8.0 | 0.00 | 0.00 | 0.00 | 62 | 1004.4 |
| 20260508032534 | 71 | 40 | 1.0 | 9.0 | 0.00 | 0.00 | 0.00 | 62 | 1004.3 |
| 20260508030734 | 70 | 357 | 4.0 | 12.0 | 0.00 | 0.00 | 0.00 | 61 | 1005.0 |
| 20260508024934 | 71 | 65 | 4.0 | 11.0 | 0.00 | 0.00 | 0.00 | 61 | 1005.0 |
| 20260508024034 | 70 | 19 | 6.0 | 11.0 | 0.00 | 0.00 | 0.00 | 63 | 1005.1 |
| 20260508023135 | 69 | 17 | 5.0 | 10.0 | 0.00 | 0.00 | 0.00 | 64 | 1005.2 |
| 20260508021334 | 67 | 69 | 6.0 | 10.0 | 0.00 | 0.00 | 0.00 | 71 | 1005.1 |
| 20260508020434 | 68 | 2 | 4.0 | 10.0 | 0.00 | 0.00 | 0.00 | 70 | 1005.1 |
| 20260508015535 | 68 | 43 | 5.0 | 8.0 | 0.00 | 0.00 | 0.00 | 71 | 1005.2 |
| 20260508014634 | 68 | 359 | 2.0 | 8.0 | 0.00 | 0.00 | 0.00 | 71 | 1005.1 |
| 20260508012834 | 68 | 36 | 3.0 | 9.0 | 0.00 | 0.00 | 0.00 | 75 | 1005.3 |
| 20260508011934 | 67 | 19 | 2.0 | 8.0 | 0.00 | 0.00 | 0.00 | 76 | 1005.4 |
| 20260508011035 | 67 | 51 | 5.0 | 11.0 | 0.00 | 0.00 | 0.00 | 74 | 1005.2 |
| 20260508010134 | 68 | 3 | 6.0 | 11.0 | 0.00 | 0.00 | 0.00 | 71 | 1005.3 |
| 20260508005234 | 68 | 21 | 5.0 | 8.0 | 0.00 | 0.00 | 0.00 | 69 | 1005.7 |
| 20260508004334 | 69 | 39 | 2.0 | 9.0 | 0.00 | 0.00 | 0.00 | 67 | 1005.7 |
| 20260508003434 | 69 | 74 | 2.0 | 11.0 | 0.00 | 0.00 | 0.00 | 66 | 1005.6 |
| 20260508002534 | 70 | 98 | 5.0 | 11.0 | 0.00 | 0.00 | 0.00 | 65 | 1005.5 |
| 20260508001634 | 70 | 49 | 4.0 | 12.0 | 0.00 | 0.00 | 0.00 | 64 | 1005.4 |
| 20260508000734 | 70 | 61 | 5.0 | 11.0 | 0.00 | 0.00 | 0.00 | 63 | 1005.5 |
| 20260507235834 | 71 | 67 | 3.0 | 6.0 | 0.00 | 0.00 | 0.00 | 62 | 1005.2 |
| 20260507234934 | 72 | 74 | 2.0 | 8.0 | 0.00 | 0.00 | 0.00 | 62 | 1005.4 |
| 20260507234034 | 72 | 62 | 5.0 | 8.0 | 0.00 | 0.00 | 0.00 | 62 | 1004.9 |
| 20260507233134 | 71 | 31 | 1.0 | 4.0 | 0.00 | 0.00 | 0.00 | 65 | 1005.0 |
| 20260507232233 | 70 | 16 | 1.0 | 3.0 | 0.00 | 0.00 | 0.00 | 66 | 1005.0 |
| 20260507231334 | 69 | 30 | 0.0 | 4.0 | 0.00 | 0.00 | 0.00 | 67 | 1004.9 |
| 20260507230434 | 68 | 38 | 1.0 | 4.0 | 0.00 | 0.00 | 0.00 | 67 | 1005.3 |
| 20260507223734 | 68 | 78 | 2.0 | 4.0 | 0.00 | 0.00 | 0.00 | 69 | 1005.4 |